sensor_id;sensor_type;location;lat;lon;timestamp;temperature;humidity
15160;DHT22;7680;48.800;9.680;2023-05-27T00:02:07;14.90;95.70
15160;DHT22;7680;48.800;9.680;2023-05-27T00:04:40;14.90;95.70
15160;DHT22;7680;48.800;9.680;2023-05-27T00:07:15;14.80;95.90
15160;DHT22;7680;48.800;9.680;2023-05-27T00:09:48;14.80;96.00
15160;DHT22;7680;48.800;9.680;2023-05-27T00:12:21;14.80;95.50
15160;DHT22;7680;48.800;9.680;2023-05-27T00:14:54;14.70;95.80
15160;DHT22;7680;48.800;9.680;2023-05-27T00:17:27;14.80;95.70
15160;DHT22;7680;48.800;9.680;2023-05-27T00:20:00;14.70;95.60
15160;DHT22;7680;48.800;9.680;2023-05-27T00:22:40;14.60;95.80
15160;DHT22;7680;48.800;9.680;2023-05-27T00:25:13;14.60;96.10
15160;DHT22;7680;48.800;9.680;2023-05-27T00:27:46;14.60;95.90
15160;DHT22;7680;48.800;9.680;2023-05-27T00:30:20;14.60;96.10
15160;DHT22;7680;48.800;9.680;2023-05-27T00:32:53;14.50;96.10
15160;DHT22;7680;48.800;9.680;2023-05-27T00:35:26;14.40;96.60
15160;DHT22;7680;48.800;9.680;2023-05-27T00:38:00;14.50;96.50
15160;DHT22;7680;48.800;9.680;2023-05-27T00:40:34;14.50;96.90
15160;DHT22;7680;48.800;9.680;2023-05-27T00:43:08;14.40;96.90
15160;DHT22;7680;48.800;9.680;2023-05-27T00:45:41;14.40;97.30
15160;DHT22;7680;48.800;9.680;2023-05-27T00:48:14;14.30;97.60
15160;DHT22;7680;48.800;9.680;2023-05-27T00:50:48;14.30;97.80
15160;DHT22;7680;48.800;9.680;2023-05-27T00:53:23;14.20;98.00
15160;DHT22;7680;48.800;9.680;2023-05-27T00:55:57;14.20;97.90
15160;DHT22;7680;48.800;9.680;2023-05-27T00:58:32;14.20;98.00
15160;DHT22;7680;48.800;9.680;2023-05-27T01:01:05;14.20;98.30
15160;DHT22;7680;48.800;9.680;2023-05-27T01:03:39;14.20;98.60
15160;DHT22;7680;48.800;9.680;2023-05-27T01:06:19;14.10;98.80
15160;DHT22;7680;48.800;9.680;2023-05-27T01:09:02;14.20;98.70
15160;DHT22;7680;48.800;9.680;2023-05-27T01:11:53;14.10;99.10
15160;DHT22;7680;48.800;9.680;2023-05-27T01:14:31;14.00;99.00
15160;DHT22;7680;48.800;9.680;2023-05-27T01:17:07;13.90;99.40
15160;DHT22;7680;48.800;9.680;2023-05-27T01:19:43;13.80;99.60
15160;DHT22;7680;48.800;9.680;2023-05-27T01:22:19;13.70;99.90
15160;DHT22;7680;48.800;9.680;2023-05-27T01:24:54;13.70;99.90
15160;DHT22;7680;48.800;9.680;2023-05-27T01:27:27;13.60;99.90
15160;DHT22;7680;48.800;9.680;2023-05-27T01:30:01;13.60;99.90
15160;DHT22;7680;48.800;9.680;2023-05-27T01:32:39;13.60;99.90
15160;DHT22;7680;48.800;9.680;2023-05-27T01:35:19;13.50;99.90
15160;DHT22;7680;48.800;9.680;2023-05-27T01:37:57;13.60;99.90
15160;DHT22;7680;48.800;9.680;2023-05-27T01:40:34;13.60;99.90
15160;DHT22;7680;48.800;9.680;2023-05-27T01:43:09;13.50;99.90
15160;DHT22;7680;48.800;9.680;2023-05-27T01:45:43;13.50;99.90
15160;DHT22;7680;48.800;9.680;2023-05-27T01:48:16;13.50;99.90
15160;DHT22;7680;48.800;9.680;2023-05-27T01:50:51;13.50;99.90
15160;DHT22;7680;48.800;9.680;2023-05-27T01:53:24;13.40;99.90
15160;DHT22;7680;48.800;9.680;2023-05-27T01:55:58;13.40;99.90
15160;DHT22;7680;48.800;9.680;2023-05-27T01:58:32;13.40;99.90
15160;DHT22;7680;48.800;9.680;2023-05-27T02:01:05;13.30;99.90
15160;DHT22;7680;48.800;9.680;2023-05-27T02:03:38;13.30;99.90
15160;DHT22;7680;48.800;9.680;2023-05-27T02:06:12;13.20;99.90
15160;DHT22;7680;48.800;9.680;2023-05-27T02:08:45;13.30;99.90
15160;DHT22;7680;48.800;9.680;2023-05-27T02:11:19;13.40;99.90
15160;DHT22;7680;48.800;9.680;2023-05-27T02:13:53;13.30;99.90
15160;DHT22;7680;48.800;9.680;2023-05-27T02:16:27;13.20;99.90
15160;DHT22;7680;48.800;9.680;2023-05-27T02:19:02;13.20;99.90
15160;DHT22;7680;48.800;9.680;2023-05-27T02:21:36;13.20;99.90
15160;DHT22;7680;48.800;9.680;2023-05-27T02:24:09;13.20;99.90
15160;DHT22;7680;48.800;9.680;2023-05-27T02:26:43;13.20;99.90
15160;DHT22;7680;48.800;9.680;2023-05-27T02:29:16;13.20;99.90
15160;DHT22;7680;48.800;9.680;2023-05-27T02:31:50;13.20;99.90
15160;DHT22;7680;48.800;9.680;2023-05-27T02:34:23;13.20;99.90
15160;DHT22;7680;48.800;9.680;2023-05-27T02:36:56;13.30;99.90
15160;DHT22;7680;48.800;9.680;2023-05-27T02:39:29;13.30;99.90
15160;DHT22;7680;48.800;9.680;2023-05-27T02:42:04;13.40;99.90
15160;DHT22;7680;48.800;9.680;2023-05-27T02:44:38;13.50;99.90
15160;DHT22;7680;48.800;9.680;2023-05-27T02:47:11;13.50;99.90
15160;DHT22;7680;48.800;9.680;2023-05-27T02:49:44;13.40;99.90
15160;DHT22;7680;48.800;9.680;2023-05-27T02:52:17;13.40;99.90
15160;DHT22;7680;48.800;9.680;2023-05-27T02:54:51;13.40;99.90
15160;DHT22;7680;48.800;9.680;2023-05-27T02:57:25;13.30;99.90
15160;DHT22;7680;48.800;9.680;2023-05-27T02:59:58;13.30;99.90
15160;DHT22;7680;48.800;9.680;2023-05-27T03:02:32;13.40;99.90
15160;DHT22;7680;48.800;9.680;2023-05-27T03:05:05;13.30;99.90
15160;DHT22;7680;48.800;9.680;2023-05-27T03:07:39;13.20;99.90
15160;DHT22;7680;48.800;9.680;2023-05-27T03:10:12;13.10;99.90
15160;DHT22;7680;48.800;9.680;2023-05-27T03:12:47;13.00;99.90
15160;DHT22;7680;48.800;9.680;2023-05-27T03:15:20;13.00;99.90
15160;DHT22;7680;48.800;9.680;2023-05-27T03:17:53;13.10;99.90
15160;DHT22;7680;48.800;9.680;2023-05-27T03:20:27;13.10;99.90
15160;DHT22;7680;48.800;9.680;2023-05-27T03:23:00;13.00;99.90
15160;DHT22;7680;48.800;9.680;2023-05-27T03:25:34;12.90;99.90
15160;DHT22;7680;48.800;9.680;2023-05-27T03:28:08;12.90;99.90
15160;DHT22;7680;48.800;9.680;2023-05-27T03:30:41;12.90;99.90
15160;DHT22;7680;48.800;9.680;2023-05-27T03:33:15;12.90;99.90
15160;DHT22;7680;48.800;9.680;2023-05-27T03:35:48;12.90;99.90
15160;DHT22;7680;48.800;9.680;2023-05-27T03:38:22;12.80;99.90
15160;DHT22;7680;48.800;9.680;2023-05-27T03:40:55;12.90;99.90
15160;DHT22;7680;48.800;9.680;2023-05-27T03:43:29;12.90;99.90
15160;DHT22;7680;48.800;9.680;2023-05-27T03:46:02;12.90;99.90
15160;DHT22;7680;48.800;9.680;2023-05-27T03:48:35;12.90;99.90
15160;DHT22;7680;48.800;9.680;2023-05-27T03:51:08;12.90;99.90
15160;DHT22;7680;48.800;9.680;2023-05-27T03:53:42;12.90;99.90
15160;DHT22;7680;48.800;9.680;2023-05-27T03:56:15;12.90;99.90
15160;DHT22;7680;48.800;9.680;2023-05-27T03:58:50;12.90;99.90
15160;DHT22;7680;48.800;9.680;2023-05-27T04:01:23;12.80;99.90
15160;DHT22;7680;48.800;9.680;2023-05-27T04:03:56;12.80;99.90
15160;DHT22;7680;48.800;9.680;2023-05-27T04:06:29;12.70;99.90
15160;DHT22;7680;48.800;9.680;2023-05-27T04:09:03;12.60;99.90
15160;DHT22;7680;48.800;9.680;2023-05-27T04:11:36;12.60;99.90
15160;DHT22;7680;48.800;9.680;2023-05-27T04:14:11;12.60;99.90
15160;DHT22;7680;48.800;9.680;2023-05-27T04:16:44;12.60;99.90
15160;DHT22;7680;48.800;9.680;2023-05-27T04:19:17;12.60;99.90
15160;DHT22;7680;48.800;9.680;2023-05-27T04:21:51;12.60;99.90
15160;DHT22;7680;48.800;9.680;2023-05-27T04:24:24;12.70;99.90
15160;DHT22;7680;48.800;9.680;2023-05-27T04:26:57;12.70;99.90
15160;DHT22;7680;48.800;9.680;2023-05-27T04:29:32;12.70;99.90
15160;DHT22;7680;48.800;9.680;2023-05-27T04:32:06;12.80;99.90
15160;DHT22;7680;48.800;9.680;2023-05-27T04:34:39;12.80;99.90
15160;DHT22;7680;48.800;9.680;2023-05-27T04:37:13;12.90;99.90
15160;DHT22;7680;48.800;9.680;2023-05-27T04:39:48;13.00;99.90
15160;DHT22;7680;48.800;9.680;2023-05-27T04:42:21;13.00;99.90
15160;DHT22;7680;48.800;9.680;2023-05-27T04:44:56;13.10;99.90
15160;DHT22;7680;48.800;9.680;2023-05-27T04:47:29;13.20;99.90
15160;DHT22;7680;48.800;9.680;2023-05-27T04:50:03;13.30;99.90
15160;DHT22;7680;48.800;9.680;2023-05-27T04:52:37;13.50;99.90
15160;DHT22;7680;48.800;9.680;2023-05-27T04:55:13;13.60;99.90
15160;DHT22;7680;48.800;9.680;2023-05-27T04:57:46;13.70;99.90
15160;DHT22;7680;48.800;9.680;2023-05-27T05:00:21;13.80;99.90
15160;DHT22;7680;48.800;9.680;2023-05-27T05:03:07;13.90;99.90
15160;DHT22;7680;48.800;9.680;2023-05-27T05:05:42;14.00;99.90
15160;DHT22;7680;48.800;9.680;2023-05-27T05:08:16;14.40;99.90
15160;DHT22;7680;48.800;9.680;2023-05-27T05:10:50;14.50;99.90
15160;DHT22;7680;48.800;9.680;2023-05-27T05:13:24;14.80;99.90
15160;DHT22;7680;48.800;9.680;2023-05-27T05:16:02;14.90;99.90
15160;DHT22;7680;48.800;9.680;2023-05-27T05:18:35;15.00;99.90
15160;DHT22;7680;48.800;9.680;2023-05-27T05:21:08;15.10;99.90
15160;DHT22;7680;48.800;9.680;2023-05-27T05:23:41;15.50;99.50
15160;DHT22;7680;48.800;9.680;2023-05-27T05:26:15;15.80;98.40
15160;DHT22;7680;48.800;9.680;2023-05-27T05:28:48;15.70;98.70
15160;DHT22;7680;48.800;9.680;2023-05-27T05:31:22;16.00;98.40
15160;DHT22;7680;48.800;9.680;2023-05-27T05:33:56;16.30;98.00
15160;DHT22;7680;48.800;9.680;2023-05-27T05:36:29;16.50;97.00
15160;DHT22;7680;48.800;9.680;2023-05-27T05:39:02;16.60;96.90
15160;DHT22;7680;48.800;9.680;2023-05-27T05:41:36;16.80;96.10
15160;DHT22;7680;48.800;9.680;2023-05-27T05:44:09;16.90;96.40
15160;DHT22;7680;48.800;9.680;2023-05-27T05:46:43;16.90;96.80
15160;DHT22;7680;48.800;9.680;2023-05-27T05:49:17;17.10;95.90
15160;DHT22;7680;48.800;9.680;2023-05-27T05:51:51;17.30;95.60
15160;DHT22;7680;48.800;9.680;2023-05-27T05:54:25;17.50;95.20
15160;DHT22;7680;48.800;9.680;2023-05-27T05:56:59;17.70;95.10
15160;DHT22;7680;48.800;9.680;2023-05-27T05:59:33;17.90;94.80
15160;DHT22;7680;48.800;9.680;2023-05-27T06:02:08;18.00;93.90
15160;DHT22;7680;48.800;9.680;2023-05-27T06:04:41;18.40;92.80
15160;DHT22;7680;48.800;9.680;2023-05-27T06:07:14;18.50;92.70
15160;DHT22;7680;48.800;9.680;2023-05-27T06:09:48;18.60;92.60
15160;DHT22;7680;48.800;9.680;2023-05-27T06:12:21;18.50;93.00
15160;DHT22;7680;48.800;9.680;2023-05-27T06:14:56;18.70;93.10
15160;DHT22;7680;48.800;9.680;2023-05-27T06:17:30;18.90;91.40
15160;DHT22;7680;48.800;9.680;2023-05-27T06:20:05;19.00;91.90
15160;DHT22;7680;48.800;9.680;2023-05-27T06:22:39;19.40;91.20
15160;DHT22;7680;48.800;9.680;2023-05-27T06:25:12;19.40;91.20
15160;DHT22;7680;48.800;9.680;2023-05-27T06:27:45;19.40;91.00
15160;DHT22;7680;48.800;9.680;2023-05-27T06:30:18;19.30;91.00
15160;DHT22;7680;48.800;9.680;2023-05-27T06:32:53;19.60;90.70
15160;DHT22;7680;48.800;9.680;2023-05-27T06:35:26;19.90;90.90
15160;DHT22;7680;48.800;9.680;2023-05-27T06:38:00;20.50;88.60
15160;DHT22;7680;48.800;9.680;2023-05-27T06:40:33;20.80;88.20
15160;DHT22;7680;48.800;9.680;2023-05-27T06:43:06;20.90;85.50
15160;DHT22;7680;48.800;9.680;2023-05-27T06:45:39;20.70;87.80
15160;DHT22;7680;48.800;9.680;2023-05-27T06:48:34;20.90;87.00
15160;DHT22;7680;48.800;9.680;2023-05-27T06:51:08;21.10;86.30
15160;DHT22;7680;48.800;9.680;2023-05-27T06:53:41;21.40;86.20
15160;DHT22;7680;48.800;9.680;2023-05-27T06:56:14;21.30;84.40
15160;DHT22;7680;48.800;9.680;2023-05-27T06:58:47;20.80;86.40
15160;DHT22;7680;48.800;9.680;2023-05-27T07:01:21;20.80;86.20
15160;DHT22;7680;48.800;9.680;2023-05-27T07:03:56;21.30;85.40
15160;DHT22;7680;48.800;9.680;2023-05-27T07:06:29;21.50;85.10
15160;DHT22;7680;48.800;9.680;2023-05-27T07:09:03;21.20;85.90
15160;DHT22;7680;48.800;9.680;2023-05-27T07:11:36;21.40;84.30
15160;DHT22;7680;48.800;9.680;2023-05-27T07:14:09;21.30;84.80
15160;DHT22;7680;48.800;9.680;2023-05-27T07:16:43;21.70;84.80
15160;DHT22;7680;48.800;9.680;2023-05-27T07:19:17;22.00;83.10
15160;DHT22;7680;48.800;9.680;2023-05-27T07:21:50;22.10;82.60
15160;DHT22;7680;48.800;9.680;2023-05-27T07:24:24;22.10;82.20
15160;DHT22;7680;48.800;9.680;2023-05-27T07:26:57;22.40;82.20
15160;DHT22;7680;48.800;9.680;2023-05-27T07:29:30;22.30;81.20
15160;DHT22;7680;48.800;9.680;2023-05-27T07:32:04;22.50;81.90
15160;DHT22;7680;48.800;9.680;2023-05-27T07:34:38;22.30;81.60
15160;DHT22;7680;48.800;9.680;2023-05-27T07:37:12;22.00;82.90
15160;DHT22;7680;48.800;9.680;2023-05-27T07:39:45;22.30;82.00
15160;DHT22;7680;48.800;9.680;2023-05-27T07:42:18;21.50;84.10
15160;DHT22;7680;48.800;9.680;2023-05-27T07:44:51;22.10;84.50
15160;DHT22;7680;48.800;9.680;2023-05-27T07:47:26;22.50;82.60
15160;DHT22;7680;48.800;9.680;2023-05-27T07:50:00;22.40;82.60
15160;DHT22;7680;48.800;9.680;2023-05-27T07:52:35;22.80;83.00
15160;DHT22;7680;48.800;9.680;2023-05-27T07:55:08;22.70;82.40
15160;DHT22;7680;48.800;9.680;2023-05-27T07:57:41;22.80;81.90
15160;DHT22;7680;48.800;9.680;2023-05-27T08:00:15;22.80;80.70
15160;DHT22;7680;48.800;9.680;2023-05-27T08:02:49;22.30;82.30
15160;DHT22;7680;48.800;9.680;2023-05-27T08:05:23;22.80;83.40
15160;DHT22;7680;48.800;9.680;2023-05-27T08:07:57;23.10;81.20
15160;DHT22;7680;48.800;9.680;2023-05-27T08:10:30;23.20;79.70
15160;DHT22;7680;48.800;9.680;2023-05-27T08:13:03;22.80;81.20
15160;DHT22;7680;48.800;9.680;2023-05-27T08:15:36;22.70;81.20
15160;DHT22;7680;48.800;9.680;2023-05-27T08:18:10;23.00;81.70
15160;DHT22;7680;48.800;9.680;2023-05-27T08:20:45;23.30;83.50
15160;DHT22;7680;48.800;9.680;2023-05-27T08:23:20;23.40;81.10
15160;DHT22;7680;48.800;9.680;2023-05-27T08:25:53;23.60;79.60
15160;DHT22;7680;48.800;9.680;2023-05-27T08:28:26;24.00;80.00
15160;DHT22;7680;48.800;9.680;2023-05-27T08:31:00;23.80;78.90
15160;DHT22;7680;48.800;9.680;2023-05-27T08:33:33;23.50;80.90
15160;DHT22;7680;48.800;9.680;2023-05-27T08:36:08;23.70;79.90
15160;DHT22;7680;48.800;9.680;2023-05-27T08:38:43;23.90;79.50
15160;DHT22;7680;48.800;9.680;2023-05-27T08:41:16;23.00;80.00
15160;DHT22;7680;48.800;9.680;2023-05-27T08:43:50;22.80;82.30
15160;DHT22;7680;48.800;9.680;2023-05-27T08:46:33;22.90;82.70
15160;DHT22;7680;48.800;9.680;2023-05-27T08:49:08;23.60;80.70
15160;DHT22;7680;48.800;9.680;2023-05-27T08:51:45;23.70;78.90
15160;DHT22;7680;48.800;9.680;2023-05-27T08:54:19;23.20;80.80
15160;DHT22;7680;48.800;9.680;2023-05-27T08:56:54;23.20;80.60
15160;DHT22;7680;48.800;9.680;2023-05-27T08:59:28;23.50;80.40
15160;DHT22;7680;48.800;9.680;2023-05-27T09:02:02;23.50;80.60
15160;DHT22;7680;48.800;9.680;2023-05-27T09:04:38;23.50;81.30
15160;DHT22;7680;48.800;9.680;2023-05-27T09:07:14;23.60;80.10
15160;DHT22;7680;48.800;9.680;2023-05-27T09:09:56;23.50;81.00
15160;DHT22;7680;48.800;9.680;2023-05-27T09:12:29;23.80;80.10
15160;DHT22;7680;48.800;9.680;2023-05-27T09:15:03;23.70;79.70
15160;DHT22;7680;48.800;9.680;2023-05-27T09:17:40;23.80;81.90
15160;DHT22;7680;48.800;9.680;2023-05-27T09:20:14;23.50;79.50
15160;DHT22;7680;48.800;9.680;2023-05-27T09:22:49;23.20;80.20
15160;DHT22;7680;48.800;9.680;2023-05-27T09:25:23;23.80;80.00
15160;DHT22;7680;48.800;9.680;2023-05-27T09:27:57;23.90;80.20
15160;DHT22;7680;48.800;9.680;2023-05-27T09:30:30;23.40;80.80
15160;DHT22;7680;48.800;9.680;2023-05-27T09:33:03;23.40;79.20
15160;DHT22;7680;48.800;9.680;2023-05-27T09:35:38;23.50;80.20
15160;DHT22;7680;48.800;9.680;2023-05-27T09:38:13;23.60;81.40
15160;DHT22;7680;48.800;9.680;2023-05-27T09:40:47;23.60;81.20
15160;DHT22;7680;48.800;9.680;2023-05-27T09:43:20;23.80;81.50
15160;DHT22;7680;48.800;9.680;2023-05-27T09:45:58;23.60;80.00
15160;DHT22;7680;48.800;9.680;2023-05-27T09:48:33;23.20;82.50
15160;DHT22;7680;48.800;9.680;2023-05-27T09:51:07;23.20;81.20
15160;DHT22;7680;48.800;9.680;2023-05-27T09:53:43;22.90;82.30
15160;DHT22;7680;48.800;9.680;2023-05-27T09:56:17;23.50;80.20
15160;DHT22;7680;48.800;9.680;2023-05-27T09:58:50;23.80;80.20
15160;DHT22;7680;48.800;9.680;2023-05-27T10:01:25;23.80;79.50
15160;DHT22;7680;48.800;9.680;2023-05-27T10:04:00;23.70;79.40
15160;DHT22;7680;48.800;9.680;2023-05-27T10:06:35;23.60;80.60
15160;DHT22;7680;48.800;9.680;2023-05-27T10:09:10;23.80;79.90
15160;DHT22;7680;48.800;9.680;2023-05-27T10:11:44;24.00;78.10
15160;DHT22;7680;48.800;9.680;2023-05-27T10:14:18;23.60;76.50
15160;DHT22;7680;48.800;9.680;2023-05-27T10:16:53;23.50;76.40
15160;DHT22;7680;48.800;9.680;2023-05-27T10:19:29;23.30;77.50
15160;DHT22;7680;48.800;9.680;2023-05-27T10:22:08;23.30;77.80
15160;DHT22;7680;48.800;9.680;2023-05-27T10:24:46;23.00;78.10
15160;DHT22;7680;48.800;9.680;2023-05-27T10:27:21;23.40;79.00
15160;DHT22;7680;48.800;9.680;2023-05-27T10:29:57;23.30;78.60
15160;DHT22;7680;48.800;9.680;2023-05-27T10:32:42;23.40;78.30
15160;DHT22;7680;48.800;9.680;2023-05-27T10:35:25;23.10;78.90
15160;DHT22;7680;48.800;9.680;2023-05-27T10:38:00;23.40;78.50
15160;DHT22;7680;48.800;9.680;2023-05-27T10:40:35;23.70;76.50
15160;DHT22;7680;48.800;9.680;2023-05-27T10:43:15;23.40;78.00
15160;DHT22;7680;48.800;9.680;2023-05-27T10:45:48;23.30;78.60
15160;DHT22;7680;48.800;9.680;2023-05-27T10:48:27;23.50;79.30
15160;DHT22;7680;48.800;9.680;2023-05-27T10:51:01;23.40;78.50
15160;DHT22;7680;48.800;9.680;2023-05-27T10:53:35;23.60;79.80
15160;DHT22;7680;48.800;9.680;2023-05-27T10:56:10;23.80;77.10
15160;DHT22;7680;48.800;9.680;2023-05-27T10:58:45;24.00;76.60
15160;DHT22;7680;48.800;9.680;2023-05-27T11:01:22;23.70;77.60
15160;DHT22;7680;48.800;9.680;2023-05-27T11:03:58;23.40;76.40
15160;DHT22;7680;48.800;9.680;2023-05-27T11:06:31;23.00;77.70
15160;DHT22;7680;48.800;9.680;2023-05-27T11:09:05;23.00;78.20
15160;DHT22;7680;48.800;9.680;2023-05-27T11:11:42;23.10;76.40
15160;DHT22;7680;48.800;9.680;2023-05-27T11:14:15;23.10;77.90
15160;DHT22;7680;48.800;9.680;2023-05-27T11:16:51;23.20;78.00
15160;DHT22;7680;48.800;9.680;2023-05-27T11:19:24;23.40;77.50
15160;DHT22;7680;48.800;9.680;2023-05-27T11:21:57;23.60;76.50
15160;DHT22;7680;48.800;9.680;2023-05-27T11:24:30;23.50;77.00
15160;DHT22;7680;48.800;9.680;2023-05-27T11:27:09;23.50;75.90
15160;DHT22;7680;48.800;9.680;2023-05-27T11:29:49;23.40;77.30
15160;DHT22;7680;48.800;9.680;2023-05-27T11:32:23;23.50;76.30
15160;DHT22;7680;48.800;9.680;2023-05-27T11:34:57;23.20;76.30
15160;DHT22;7680;48.800;9.680;2023-05-27T11:37:31;23.00;75.70
15160;DHT22;7680;48.800;9.680;2023-05-27T11:40:10;22.90;76.20
15160;DHT22;7680;48.800;9.680;2023-05-27T11:42:45;22.70;76.40
15160;DHT22;7680;48.800;9.680;2023-05-27T11:45:20;22.80;77.20
15160;DHT22;7680;48.800;9.680;2023-05-27T11:47:55;22.90;75.40
15160;DHT22;7680;48.800;9.680;2023-05-27T11:50:28;23.00;77.30
15160;DHT22;7680;48.800;9.680;2023-05-27T11:53:03;23.20;75.90
15160;DHT22;7680;48.800;9.680;2023-05-27T11:55:38;23.30;73.60
15160;DHT22;7680;48.800;9.680;2023-05-27T11:58:13;23.30;74.80
15160;DHT22;7680;48.800;9.680;2023-05-27T12:00:46;23.30;73.90
15160;DHT22;7680;48.800;9.680;2023-05-27T12:03:19;23.60;73.40
15160;DHT22;7680;48.800;9.680;2023-05-27T12:05:53;23.50;74.90
15160;DHT22;7680;48.800;9.680;2023-05-27T12:08:27;23.50;72.30
15160;DHT22;7680;48.800;9.680;2023-05-27T12:11:01;23.30;73.40
15160;DHT22;7680;48.800;9.680;2023-05-27T12:13:35;23.30;73.30
15160;DHT22;7680;48.800;9.680;2023-05-27T12:16:09;23.30;73.40
15160;DHT22;7680;48.800;9.680;2023-05-27T12:18:43;23.10;70.90
15160;DHT22;7680;48.800;9.680;2023-05-27T12:21:17;23.00;73.90
15160;DHT22;7680;48.800;9.680;2023-05-27T12:23:51;22.90;73.70
15160;DHT22;7680;48.800;9.680;2023-05-27T12:26:24;22.90;73.50
15160;DHT22;7680;48.800;9.680;2023-05-27T12:28:59;22.90;73.50
15160;DHT22;7680;48.800;9.680;2023-05-27T12:31:33;23.20;74.40
15160;DHT22;7680;48.800;9.680;2023-05-27T12:34:07;23.20;72.60
15160;DHT22;7680;48.800;9.680;2023-05-27T12:36:40;23.40;70.90
15160;DHT22;7680;48.800;9.680;2023-05-27T12:39:14;23.40;70.20
15160;DHT22;7680;48.800;9.680;2023-05-27T12:41:47;23.30;69.60
15160;DHT22;7680;48.800;9.680;2023-05-27T12:44:23;23.50;69.40
15160;DHT22;7680;48.800;9.680;2023-05-27T12:46:56;23.50;69.30
15160;DHT22;7680;48.800;9.680;2023-05-27T12:49:30;23.40;68.00
15160;DHT22;7680;48.800;9.680;2023-05-27T12:52:04;23.30;69.50
15160;DHT22;7680;48.800;9.680;2023-05-27T12:54:37;23.40;69.70
15160;DHT22;7680;48.800;9.680;2023-05-27T12:57:11;23.40;68.30
15160;DHT22;7680;48.800;9.680;2023-05-27T12:59:45;23.30;68.40
15160;DHT22;7680;48.800;9.680;2023-05-27T13:02:19;23.30;67.30
15160;DHT22;7680;48.800;9.680;2023-05-27T13:04:52;23.30;68.60
15160;DHT22;7680;48.800;9.680;2023-05-27T13:07:25;23.40;67.80
15160;DHT22;7680;48.800;9.680;2023-05-27T13:10:00;23.40;67.30
15160;DHT22;7680;48.800;9.680;2023-05-27T13:12:35;23.60;66.00
15160;DHT22;7680;48.800;9.680;2023-05-27T13:15:10;23.40;65.60
15160;DHT22;7680;48.800;9.680;2023-05-27T13:17:44;23.30;63.80
15160;DHT22;7680;48.800;9.680;2023-05-27T13:20:19;23.40;64.00
15160;DHT22;7680;48.800;9.680;2023-05-27T13:22:52;23.50;63.80
15160;DHT22;7680;48.800;9.680;2023-05-27T13:25:26;23.20;64.00
15160;DHT22;7680;48.800;9.680;2023-05-27T13:28:01;23.20;65.30
15160;DHT22;7680;48.800;9.680;2023-05-27T13:30:36;23.20;66.10
15160;DHT22;7680;48.800;9.680;2023-05-27T13:33:09;23.20;64.50
15160;DHT22;7680;48.800;9.680;2023-05-27T13:35:42;23.10;64.80
15160;DHT22;7680;48.800;9.680;2023-05-27T13:38:16;23.10;65.20
15160;DHT22;7680;48.800;9.680;2023-05-27T13:40:49;23.10;65.50
15160;DHT22;7680;48.800;9.680;2023-05-27T13:43:22;23.20;65.10
15160;DHT22;7680;48.800;9.680;2023-05-27T13:45:57;23.30;65.40
15160;DHT22;7680;48.800;9.680;2023-05-27T13:48:30;23.30;64.60
15160;DHT22;7680;48.800;9.680;2023-05-27T13:51:03;23.30;65.70
15160;DHT22;7680;48.800;9.680;2023-05-27T13:53:37;23.30;65.20
15160;DHT22;7680;48.800;9.680;2023-05-27T13:56:10;23.40;66.60
15160;DHT22;7680;48.800;9.680;2023-05-27T13:58:43;23.40;66.00
15160;DHT22;7680;48.800;9.680;2023-05-27T14:01:18;23.40;67.20
15160;DHT22;7680;48.800;9.680;2023-05-27T14:03:51;23.30;65.00
15160;DHT22;7680;48.800;9.680;2023-05-27T14:06:25;23.30;65.80
15160;DHT22;7680;48.800;9.680;2023-05-27T14:08:58;23.30;66.60
15160;DHT22;7680;48.800;9.680;2023-05-27T14:11:32;23.30;65.90
15160;DHT22;7680;48.800;9.680;2023-05-27T14:14:05;23.30;65.90
15160;DHT22;7680;48.800;9.680;2023-05-27T14:16:39;23.40;68.00
15160;DHT22;7680;48.800;9.680;2023-05-27T14:19:13;23.40;66.90
15160;DHT22;7680;48.800;9.680;2023-05-27T14:21:47;23.50;64.30
15160;DHT22;7680;48.800;9.680;2023-05-27T14:24:20;23.40;64.70
15160;DHT22;7680;48.800;9.680;2023-05-27T14:26:56;23.40;66.50
15160;DHT22;7680;48.800;9.680;2023-05-27T14:29:29;23.70;66.50
15160;DHT22;7680;48.800;9.680;2023-05-27T14:32:05;23.60;65.80
15160;DHT22;7680;48.800;9.680;2023-05-27T14:34:38;23.50;67.70
15160;DHT22;7680;48.800;9.680;2023-05-27T14:37:12;23.50;67.30
15160;DHT22;7680;48.800;9.680;2023-05-27T14:39:45;23.50;67.40
15160;DHT22;7680;48.800;9.680;2023-05-27T14:42:19;23.50;67.60
15160;DHT22;7680;48.800;9.680;2023-05-27T14:44:52;23.50;67.70
15160;DHT22;7680;48.800;9.680;2023-05-27T14:47:27;23.50;68.00
15160;DHT22;7680;48.800;9.680;2023-05-27T14:50:00;23.50;69.10
15160;DHT22;7680;48.800;9.680;2023-05-27T14:52:33;23.30;67.50
15160;DHT22;7680;48.800;9.680;2023-05-27T14:55:07;23.30;68.60
15160;DHT22;7680;48.800;9.680;2023-05-27T14:57:41;23.20;68.70
15160;DHT22;7680;48.800;9.680;2023-05-27T15:00:15;23.20;69.50
15160;DHT22;7680;48.800;9.680;2023-05-27T15:02:50;23.20;67.40
15160;DHT22;7680;48.800;9.680;2023-05-27T15:05:23;23.20;67.60
15160;DHT22;7680;48.800;9.680;2023-05-27T15:07:57;23.20;68.60
15160;DHT22;7680;48.800;9.680;2023-05-27T15:10:30;23.20;68.70
15160;DHT22;7680;48.800;9.680;2023-05-27T15:13:04;23.30;68.90
15160;DHT22;7680;48.800;9.680;2023-05-27T15:15:37;23.50;67.60
15160;DHT22;7680;48.800;9.680;2023-05-27T15:18:13;23.30;66.50
15160;DHT22;7680;48.800;9.680;2023-05-27T15:20:46;23.30;67.20
15160;DHT22;7680;48.800;9.680;2023-05-27T15:23:19;23.60;67.40
15160;DHT22;7680;48.800;9.680;2023-05-27T15:25:53;23.50;66.50
15160;DHT22;7680;48.800;9.680;2023-05-27T15:28:26;23.20;66.00
15160;DHT22;7680;48.800;9.680;2023-05-27T15:30:59;23.20;67.40
15160;DHT22;7680;48.800;9.680;2023-05-27T15:33:34;23.20;66.80
15160;DHT22;7680;48.800;9.680;2023-05-27T15:36:11;23.20;65.70
15160;DHT22;7680;48.800;9.680;2023-05-27T15:38:45;23.10;67.00
15160;DHT22;7680;48.800;9.680;2023-05-27T15:41:18;23.10;68.30
15160;DHT22;7680;48.800;9.680;2023-05-27T15:43:53;23.10;68.30
15160;DHT22;7680;48.800;9.680;2023-05-27T15:46:26;23.30;66.90
15160;DHT22;7680;48.800;9.680;2023-05-27T15:49:01;23.20;66.10
15160;DHT22;7680;48.800;9.680;2023-05-27T15:51:34;23.20;67.80
15160;DHT22;7680;48.800;9.680;2023-05-27T15:54:09;23.30;66.60
15160;DHT22;7680;48.800;9.680;2023-05-27T15:56:43;23.20;67.10
15160;DHT22;7680;48.800;9.680;2023-05-27T15:59:17;23.10;67.10
15160;DHT22;7680;48.800;9.680;2023-05-27T16:01:50;23.00;66.20
15160;DHT22;7680;48.800;9.680;2023-05-27T16:04:25;23.10;66.10
15160;DHT22;7680;48.800;9.680;2023-05-27T16:06:58;23.00;67.70
15160;DHT22;7680;48.800;9.680;2023-05-27T16:09:34;23.00;67.20
15160;DHT22;7680;48.800;9.680;2023-05-27T16:12:09;23.00;65.50
15160;DHT22;7680;48.800;9.680;2023-05-27T16:14:43;22.90;66.70
15160;DHT22;7680;48.800;9.680;2023-05-27T16:17:16;22.90;67.70
15160;DHT22;7680;48.800;9.680;2023-05-27T16:19:51;22.90;66.20
15160;DHT22;7680;48.800;9.680;2023-05-27T16:22:24;23.10;66.10
15160;DHT22;7680;48.800;9.680;2023-05-27T16:24:58;23.10;67.10
15160;DHT22;7680;48.800;9.680;2023-05-27T16:27:31;23.10;65.90
15160;DHT22;7680;48.800;9.680;2023-05-27T16:30:06;23.20;65.60